createdAt,value
2018-04-08T00:00:47.806Z,9.73
2018-04-08T00:03:16.710Z,9.67
2018-04-08T00:05:42.598Z,10.02
2018-04-08T00:08:12.121Z,8.70
2018-04-08T00:10:38.007Z,9.65
2018-04-08T00:13:03.847Z,9.77
2018-04-08T00:15:29.712Z,8.13
2018-04-08T00:17:55.633Z,8.23
2018-04-08T00:20:24.564Z,8.27
2018-04-08T00:22:50.750Z,9.32
2018-04-08T00:25:17.463Z,9.70
2018-04-08T00:27:43.379Z,9.68
2018-04-08T00:30:12.552Z,10.37
2018-04-08T00:32:38.428Z,9.07
2018-04-08T00:35:06.878Z,9.40
2018-04-08T00:37:32.762Z,9.60
2018-04-08T00:40:01.593Z,9.13
2018-04-08T00:42:27.491Z,9.30
2018-04-08T00:44:56.345Z,10.07
2018-04-08T00:47:22.221Z,9.18
2018-04-08T00:49:48.098Z,9.20
2018-04-08T00:52:13.948Z,8.63
2018-04-08T00:54:39.879Z,9.83
2018-04-08T00:57:08.932Z,10.43
2018-04-08T00:59:34.839Z,10.05
2018-04-08T01:02:02.839Z,10.13
2018-04-08T01:04:28.722Z,9.80
2018-04-08T01:06:57.683Z,10.17
2018-04-08T01:09:23.571Z,8.93
2018-04-08T01:11:52.668Z,9.23
2018-04-08T01:14:18.575Z,10.18
2018-04-08T01:16:47.929Z,11.67
2018-04-08T01:19:13.817Z,9.90
2018-04-08T01:21:42.891Z,9.80
2018-04-08T01:24:08.771Z,9.30
2018-04-08T01:26:34.632Z,10.33
2018-04-08T01:29:00.501Z,10.33
2018-04-08T01:31:26.353Z,9.63
2018-04-08T01:33:53.407Z,10.37
2018-04-08T01:36:19.303Z,8.45
2018-04-08T01:38:48.337Z,8.50
2018-04-08T01:41:14.231Z,8.68
2018-04-08T01:43:43.999Z,8.57
2018-04-08T01:46:09.826Z,9.30
2018-04-08T01:48:39.427Z,8.60
2018-04-08T01:51:05.283Z,9.30
2018-04-08T01:53:32.480Z,10.20
2018-04-08T01:55:58.364Z,11.27
2018-04-08T01:58:27.870Z,9.20
2018-04-08T02:00:53.722Z,9.73
2018-04-08T02:03:19.619Z,10.70
2018-04-08T02:05:45.476Z,10.20
2018-04-08T02:08:11.334Z,13.27
2018-04-08T02:10:38.817Z,12.07
2018-04-08T02:13:04.700Z,13.18
2018-04-08T02:15:33.534Z,13.63
2018-04-08T02:17:59.379Z,12.48
2018-04-08T02:20:28.091Z,12.03
2018-04-08T02:22:53.976Z,9.82
2018-04-08T02:25:23.055Z,11.63
2018-04-08T02:27:48.935Z,10.05
2018-04-08T02:30:18.698Z,10.93
2018-04-08T02:32:44.581Z,11.90
2018-04-08T02:35:13.992Z,10.00
2018-04-08T02:37:39.888Z,10.30
2018-04-08T02:40:05.753Z,9.83
2018-04-08T02:42:31.632Z,10.50
2018-04-08T02:44:57.483Z,8.87
2018-04-08T02:47:23.855Z,10.03
2018-04-08T02:49:49.763Z,8.50
2018-04-08T02:52:18.564Z,8.70
2018-04-08T02:54:44.457Z,9.63
2018-04-08T02:57:13.236Z,9.77
2018-04-08T02:59:39.111Z,8.43
2018-04-08T03:02:07.790Z,9.07
2018-04-08T03:04:33.688Z,9.40
2018-04-08T03:07:02.525Z,9.30
2018-04-08T03:09:28.417Z,9.25
2018-04-08T03:11:56.910Z,9.30
2018-04-08T03:14:22.771Z,8.48
2018-04-08T03:16:48.634Z,8.33
2018-04-08T03:19:14.564Z,9.47
2018-04-08T03:21:40.434Z,9.00
2018-04-08T03:24:09.166Z,8.33
2018-04-08T03:26:35.035Z,9.25
2018-04-08T03:29:03.796Z,10.03
2018-04-08T03:31:29.701Z,10.40
2018-04-08T03:33:58.511Z,9.23
2018-04-08T03:36:24.399Z,9.20
2018-04-08T03:38:53.616Z,9.43
2018-04-08T03:41:19.491Z,8.48
2018-04-08T03:43:49.082Z,8.33
2018-04-08T03:46:14.960Z,9.15
2018-04-08T03:48:42.767Z,9.07
2018-04-08T03:51:08.682Z,9.43
2018-04-08T03:53:34.551Z,9.20
2018-04-08T03:56:00.446Z,9.00
2018-04-08T03:58:26.312Z,9.50
2018-04-08T04:00:55.670Z,9.90
2018-04-08T04:03:21.541Z,9.55
2018-04-08T04:05:51.184Z,8.90
2018-04-08T04:08:17.103Z,9.98
2018-04-08T04:10:44.873Z,9.33
2018-04-08T04:13:10.772Z,9.35
2018-04-08T04:15:40.391Z,9.50
2018-04-08T04:18:18.603Z,9.25
2018-04-08T04:20:56.772Z,8.80
2018-04-08T04:23:34.887Z,8.93
2018-04-08T04:26:13.243Z,8.15
2018-04-08T04:28:39.133Z,9.18
2018-04-08T04:31:04.973Z,9.83
2018-04-08T04:33:30.845Z,8.37
2018-04-08T04:35:56.721Z,8.83
2018-04-08T04:38:22.588Z,8.60
2018-04-08T04:40:48.457Z,8.97
2018-04-08T04:43:14.373Z,9.40
2018-04-08T04:45:40.257Z,8.87
2018-04-08T04:48:06.140Z,8.13
2018-04-08T04:50:32.023Z,8.27
2018-04-08T04:52:57.916Z,9.57
2018-04-08T04:55:23.798Z,7.73
2018-04-08T04:57:49.650Z,9.43
2018-04-08T05:00:15.523Z,9.77
2018-04-08T05:02:41.436Z,8.53
2018-04-08T05:05:07.293Z,9.43
2018-04-08T05:07:33.179Z,8.90
2018-04-08T05:09:59.011Z,9.17
2018-04-08T05:12:24.893Z,8.93
2018-04-08T05:14:56.854Z,9.73
2018-04-08T05:17:22.729Z,8.10
2018-04-08T05:19:48.609Z,8.53
2018-04-08T05:22:14.467Z,7.73
2018-04-08T05:24:40.360Z,9.20
2018-04-08T05:27:06.271Z,8.40
2018-04-08T05:29:32.174Z,8.50
2018-04-08T05:31:58.033Z,8.30
2018-04-08T05:34:23.890Z,8.53
2018-04-08T05:36:49.813Z,9.00
2018-04-08T05:39:15.671Z,8.80
2018-04-08T05:41:41.527Z,9.07
2018-04-08T05:44:07.456Z,9.23
2018-04-08T05:46:33.357Z,9.70
2018-04-08T05:48:59.247Z,10.27
2018-04-08T05:51:25.081Z,10.00
2018-04-08T05:53:50.981Z,10.47
2018-04-08T05:56:16.901Z,10.17
2018-04-08T05:58:42.800Z,9.33
2018-04-08T06:01:08.696Z,9.50
2018-04-08T06:03:34.555Z,8.67
2018-04-08T06:06:00.438Z,9.47
2018-04-08T06:08:26.307Z,8.10
2018-04-08T06:10:52.178Z,10.03
2018-04-08T06:13:18.050Z,9.10
2018-04-08T06:15:44.034Z,9.93
2018-04-08T06:18:09.939Z,10.43
2018-04-08T06:20:35.859Z,9.53
2018-04-08T06:23:01.757Z,9.97
2018-04-08T06:25:27.680Z,9.60
2018-04-08T06:27:56.775Z,9.53
2018-04-08T06:30:22.703Z,9.32
2018-04-08T06:32:50.469Z,10.23
2018-04-08T06:35:16.370Z,9.75
2018-04-08T06:37:45.301Z,9.83
2018-04-08T06:40:11.206Z,10.90
2018-04-08T06:42:40.427Z,12.50
2018-04-08T06:45:06.310Z,10.93
2018-04-08T06:47:35.425Z,10.17
2018-04-08T06:50:01.315Z,9.40
2018-04-08T06:52:29.425Z,9.20
2018-04-08T06:54:55.288Z,10.57
2018-04-08T06:57:21.147Z,9.73
2018-04-08T06:59:47.118Z,9.87
2018-04-08T07:02:13.013Z,9.80
2018-04-08T07:04:42.158Z,9.73
2018-04-08T07:07:08.047Z,10.37
2018-04-08T07:09:37.681Z,10.50
2018-04-08T07:12:03.600Z,10.20
2018-04-08T07:14:31.162Z,9.30
2018-04-08T07:16:57.039Z,9.20
2018-04-08T07:19:26.770Z,10.17
2018-04-08T07:21:52.655Z,10.80
2018-04-08T07:24:20.080Z,10.73
2018-04-08T07:26:45.975Z,11.93
2018-04-08T07:29:15.163Z,11.37
2018-04-08T07:31:41.447Z,11.90
2018-04-08T07:34:07.349Z,12.80
2018-04-08T07:36:33.256Z,11.50
2018-04-08T07:38:59.095Z,11.57
2018-04-08T07:41:28.031Z,11.00
2018-04-08T07:43:53.939Z,12.33
2018-04-08T07:46:21.054Z,12.33
2018-04-08T07:48:46.963Z,12.50
2018-04-08T07:51:15.654Z,12.20
2018-04-08T07:53:41.582Z,12.77
2018-04-08T07:56:10.419Z,13.23
2018-04-08T07:58:36.323Z,14.17
2018-04-08T08:01:05.248Z,13.00
2018-04-08T08:03:31.152Z,13.93
2018-04-08T08:05:59.871Z,14.10
2018-04-08T08:08:25.728Z,14.33
2018-04-08T08:10:51.598Z,14.60
2018-04-08T08:13:17.450Z,14.07
2018-04-08T08:15:43.363Z,14.33
2018-04-08T08:18:12.034Z,13.97
2018-04-08T08:20:37.880Z,14.33
2018-04-08T08:23:07.447Z,13.30
2018-04-08T08:25:33.332Z,13.83
2018-04-08T08:28:01.323Z,16.03
2018-04-08T08:30:27.227Z,14.50
2018-04-08T08:32:56.696Z,13.90
2018-04-08T08:35:22.616Z,13.20
2018-04-08T08:37:50.365Z,13.90
2018-04-08T08:40:16.221Z,13.63
2018-04-08T08:42:48.951Z,15.03
2018-04-08T08:45:14.835Z,15.90
2018-04-08T08:47:40.693Z,17.37
2018-04-08T08:50:06.611Z,17.20
2018-04-08T08:52:32.459Z,18.00
2018-04-08T08:54:58.379Z,17.20
2018-04-08T08:57:24.202Z,17.77
2018-04-08T08:59:51.764Z,16.50
2018-04-08T09:02:17.693Z,15.83
2018-04-08T09:04:46.843Z,17.87
2018-04-08T09:07:12.731Z,17.83
2018-04-08T09:09:41.816Z,17.70
2018-04-08T09:12:07.748Z,16.93
2018-04-08T09:14:36.142Z,17.27
2018-04-08T09:17:02.061Z,17.20
2018-04-08T09:22:38.149Z,18.70
2018-04-08T09:25:04.911Z,16.80
2018-04-08T09:27:30.845Z,19.27
2018-04-08T09:29:56.669Z,17.10
2018-04-08T09:32:22.540Z,16.10
2018-04-08T09:34:48.406Z,16.00
2018-04-08T09:37:14.316Z,16.73
2018-04-08T09:39:40.190Z,19.00
2018-04-08T09:42:06.092Z,16.60
2018-04-08T09:44:31.955Z,15.93
2018-04-08T09:46:57.825Z,16.93
2018-04-08T09:49:23.739Z,17.23
2018-04-08T09:51:49.616Z,17.50
2018-04-08T09:54:15.505Z,15.60
2018-04-08T09:56:41.445Z,17.17
2018-04-08T09:59:07.311Z,14.73
2018-04-08T10:01:39.311Z,15.77
2018-04-08T10:04:05.221Z,15.80
2018-04-08T10:06:31.202Z,18.40
2018-04-08T10:08:57.083Z,17.67
2018-04-08T10:11:22.941Z,18.23
2018-04-08T10:13:48.841Z,17.30
2018-04-08T10:16:14.746Z,17.30
2018-04-08T10:18:40.626Z,17.97
2018-04-08T10:21:06.503Z,17.37
2018-04-08T10:23:32.411Z,17.53
2018-04-08T10:25:58.270Z,18.80
2018-04-08T10:28:24.154Z,16.53
2018-04-08T10:30:50.068Z,16.03
2018-04-08T10:33:15.918Z,18.80
2018-04-08T10:35:41.819Z,17.87
2018-04-08T10:38:07.706Z,17.90
2018-04-08T10:40:33.555Z,17.60
2018-04-08T10:42:59.442Z,17.40
2018-04-08T10:45:25.332Z,18.60
2018-04-08T10:47:51.271Z,17.10
2018-04-08T10:50:17.133Z,18.77
2018-04-08T10:52:42.994Z,17.73
2018-04-08T10:55:08.860Z,17.20
2018-04-08T10:57:34.752Z,19.67
2018-04-08T11:00:00.631Z,17.03
2018-04-08T11:02:26.523Z,18.17
2018-04-08T11:04:52.382Z,16.07
2018-04-08T11:07:18.268Z,16.20
2018-04-08T11:09:47.344Z,16.20
2018-04-08T11:12:13.258Z,16.60
2018-04-08T11:14:40.189Z,16.90
2018-04-08T11:17:06.414Z,16.63
2018-04-08T11:19:32.264Z,16.87
2018-04-08T11:21:58.135Z,17.03
2018-04-08T11:24:23.997Z,17.40
2018-04-08T11:26:52.669Z,15.80
2018-04-08T11:29:18.600Z,14.67
2018-04-08T11:31:47.754Z,15.30
2018-04-08T11:34:13.692Z,13.73
2018-04-08T11:36:43.071Z,14.27
2018-04-08T11:39:08.948Z,12.43
2018-04-08T11:41:37.201Z,13.73
2018-04-08T11:44:03.106Z,12.10
2018-04-08T11:46:32.193Z,15.30
2018-04-08T11:48:58.101Z,13.20
2018-04-08T11:51:23.972Z,13.03
2018-04-08T11:53:49.868Z,15.17
2018-04-08T11:56:15.717Z,13.10
2018-04-08T11:58:43.214Z,12.80
2018-04-08T12:01:09.105Z,15.10
2018-04-08T12:03:38.222Z,27.30
2018-04-08T12:06:04.078Z,13.30
2018-04-08T12:08:33.631Z,13.23
2018-04-08T12:10:59.663Z,12.37
2018-04-08T12:13:27.782Z,11.90
2018-04-08T12:15:53.651Z,11.60
2018-04-08T12:18:23.142Z,12.37
2018-04-08T12:20:49.116Z,12.20
2018-04-08T12:23:18.483Z,10.10
2018-04-08T12:25:44.375Z,11.40
2018-04-08T12:28:10.281Z,10.20
2018-04-08T12:30:36.143Z,11.00
2018-04-08T12:33:02.069Z,9.97
2018-04-08T12:35:28.497Z,9.90
2018-04-08T12:37:54.352Z,11.47
2018-04-08T12:40:23.017Z,9.70
2018-04-08T12:42:48.895Z,11.20
2018-04-08T12:47:45.753Z,8.93
2018-04-08T12:50:12.872Z,7.57
2018-04-08T12:52:38.758Z,6.27
2018-04-08T12:55:07.599Z,4.03
2018-04-08T12:57:33.471Z,6.17
2018-04-08T13:00:06.164Z,5.97
2018-04-08T13:02:32.096Z,4.80
2018-04-08T13:04:57.970Z,4.70
2018-04-08T13:07:23.822Z,5.00
2018-04-08T13:09:49.736Z,4.47
2018-04-08T13:12:15.631Z,7.07
2018-04-08T13:14:42.035Z,7.80
2018-04-08T13:17:09.177Z,5.43
2018-04-08T13:19:35.070Z,6.77
2018-04-08T13:22:04.279Z,5.63
2018-04-08T13:24:30.105Z,4.23
2018-04-08T13:26:59.762Z,4.27
2018-04-08T13:29:25.614Z,5.97
2018-04-08T13:31:53.133Z,7.13
2018-04-08T13:34:18.996Z,6.80
2018-04-08T13:36:48.732Z,7.27
2018-04-08T13:39:14.645Z,7.13
2018-04-08T13:41:40.504Z,6.10
2018-04-08T13:44:06.395Z,5.60
2018-04-08T13:46:32.269Z,6.50
2018-04-08T13:48:59.807Z,6.63
2018-04-08T13:51:25.706Z,6.27
2018-04-08T13:53:54.869Z,5.33
2018-04-08T13:56:20.765Z,5.10
2018-04-08T13:58:49.007Z,4.17
2018-04-08T14:01:14.880Z,4.93
2018-04-08T14:03:44.263Z,5.83
2018-04-08T14:06:10.171Z,7.43
2018-04-08T14:08:39.667Z,4.77
2018-04-08T14:11:05.544Z,5.43
2018-04-08T14:13:32.875Z,7.40
2018-04-08T14:15:58.810Z,6.43
2018-04-08T14:18:24.683Z,7.80
2018-04-08T14:20:50.564Z,7.10
2018-04-08T14:23:16.397Z,6.50
2018-04-08T14:25:45.488Z,7.57
2018-04-08T14:28:11.411Z,7.80
2018-04-08T14:30:41.010Z,7.17
2018-04-08T14:33:06.899Z,8.57
2018-04-08T14:35:34.715Z,8.60
2018-04-08T14:38:00.594Z,9.20
2018-04-08T14:40:29.583Z,9.27
2018-04-08T14:42:55.503Z,8.80
2018-04-08T14:45:25.039Z,8.40
2018-04-08T14:47:50.931Z,8.50
2018-04-08T14:50:18.097Z,8.37
2018-04-08T14:52:43.970Z,8.57
2018-04-08T14:55:09.850Z,9.10
2018-04-08T14:57:35.746Z,7.33
2018-04-08T15:00:01.761Z,8.00
2018-04-08T15:02:30.813Z,9.80
2018-04-08T15:04:56.729Z,9.10
2018-04-08T15:07:26.255Z,9.70
2018-04-08T15:09:52.124Z,9.10
2018-04-08T15:12:19.632Z,9.20
2018-04-08T15:14:45.800Z,9.73
2018-04-08T15:17:14.769Z,10.13
2018-04-08T15:19:40.653Z,7.27
2018-04-08T15:22:09.014Z,9.07
2018-04-08T15:24:34.870Z,8.33
2018-04-08T15:27:04.471Z,6.87
2018-04-08T15:29:30.357Z,9.07
2018-04-08T15:31:56.207Z,7.97
2018-04-08T15:34:22.079Z,9.53
2018-04-08T15:36:47.961Z,10.47
2018-04-08T15:39:15.756Z,9.37
2018-04-08T15:41:41.648Z,8.97
2018-04-08T15:44:11.404Z,9.17
2018-04-08T15:46:37.268Z,9.90
2018-04-08T15:49:06.370Z,10.80
2018-04-08T15:51:32.318Z,11.40
2018-04-08T15:53:59.260Z,11.40
2018-04-08T15:56:25.138Z,9.90
2018-04-08T15:58:54.357Z,9.60
2018-04-08T16:01:20.244Z,10.37
2018-04-08T16:03:49.686Z,9.50
2018-04-08T16:06:15.582Z,9.97
2018-04-08T16:08:41.451Z,10.33
2018-04-08T16:11:07.286Z,11.47
2018-04-08T16:13:33.144Z,9.87
2018-04-08T16:16:02.251Z,9.20
2018-04-08T16:18:28.136Z,11.47
2018-04-08T16:20:55.844Z,9.40
2018-04-08T16:23:21.692Z,11.00
2018-04-08T16:25:50.080Z,9.87
2018-04-08T16:28:15.948Z,8.87
2018-04-08T16:30:46.245Z,10.27
2018-04-08T16:33:12.155Z,9.20
2018-04-08T16:35:41.116Z,8.43
2018-04-08T16:38:06.971Z,10.30
2018-04-08T16:40:33.925Z,9.27
2018-04-08T16:42:59.919Z,8.73
2018-04-08T16:45:25.922Z,8.50
2018-04-08T16:47:51.786Z,7.10
2018-04-08T16:50:17.643Z,7.03
2018-04-08T16:52:47.455Z,7.63
2018-04-08T16:55:13.330Z,8.17
2018-04-08T16:57:40.634Z,8.23
2018-04-08T17:00:06.571Z,7.83
2018-04-08T17:02:36.144Z,8.17
2018-04-08T17:05:02.017Z,6.50
2018-04-08T17:07:31.384Z,7.60
2018-04-08T17:09:57.279Z,7.40
2018-04-08T17:12:24.606Z,6.70
2018-04-08T17:14:52.463Z,6.30
2018-04-08T17:17:19.342Z,7.23
2018-04-08T17:19:45.262Z,6.83
2018-04-08T17:22:11.154Z,6.50
2018-04-08T17:24:37.048Z,7.17
2018-04-08T17:27:02.983Z,6.60
2018-04-08T17:29:32.755Z,6.03
2018-04-08T17:31:58.621Z,69.00
2018-04-08T17:34:25.794Z,32.07
2018-04-08T17:36:51.640Z,8.60
2018-04-08T17:39:20.525Z,6.73
2018-04-08T17:41:46.452Z,6.50
2018-04-08T17:44:16.372Z,6.27
2018-04-08T17:46:42.275Z,6.83
2018-04-08T17:49:11.394Z,6.03
2018-04-08T17:51:37.262Z,6.37
2018-04-08T17:54:06.246Z,6.10
2018-04-08T17:56:32.092Z,6.23
2018-04-08T17:58:57.932Z,5.57
2018-04-08T18:01:23.817Z,6.23
2018-04-08T18:03:49.711Z,7.10
2018-04-08T18:06:16.519Z,6.90
2018-04-08T18:08:42.400Z,5.70
2018-04-08T18:11:11.416Z,6.33
2018-04-08T18:13:37.326Z,5.87
2018-04-08T18:16:06.075Z,6.20
2018-04-08T18:18:31.967Z,6.40
2018-04-08T18:21:00.421Z,5.40
2018-04-08T18:23:26.280Z,6.30
2018-04-08T18:25:55.097Z,6.97
2018-04-08T18:28:20.977Z,6.33
2018-04-08T18:30:49.662Z,5.43
2018-04-08T18:33:15.525Z,6.47
2018-04-08T18:35:41.731Z,6.33
2018-04-08T18:38:07.726Z,6.20
2018-04-08T18:40:33.619Z,5.73
2018-04-08T18:43:02.021Z,6.97
2018-04-08T18:45:27.872Z,5.97
2018-04-08T18:47:57.269Z,5.30
2018-04-08T18:50:23.162Z,5.90
2018-04-08T18:52:51.087Z,6.40
2018-04-08T18:55:16.941Z,5.80
2018-04-08T18:57:46.075Z,6.10
2018-04-08T19:00:11.938Z,6.13
2018-04-08T19:02:41.572Z,5.60
2018-04-08T19:05:07.427Z,5.33
2018-04-08T19:07:36.815Z,5.87
2018-04-08T19:10:02.782Z,6.17
2018-04-08T19:12:28.659Z,4.70
2018-04-08T19:15:00.615Z,5.77
2018-04-08T19:17:32.643Z,5.80
2018-04-08T19:19:58.514Z,4.97
2018-04-08T19:22:24.395Z,5.13
2018-04-08T19:24:50.305Z,5.30
2018-04-08T19:27:22.456Z,6.07
2018-04-08T19:29:48.302Z,4.13
2018-04-08T19:32:14.202Z,5.13
2018-04-08T19:34:40.064Z,4.97
2018-04-08T19:37:05.927Z,5.50
2018-04-08T19:39:31.844Z,6.80
2018-04-08T19:41:58.015Z,10.87
2018-04-08T19:44:23.880Z,5.40
2018-04-08T19:46:49.775Z,5.47
2018-04-08T19:49:15.663Z,7.50
2018-04-08T19:51:41.516Z,6.20
2018-04-08T19:54:07.375Z,5.70
2018-04-08T19:56:33.284Z,6.07
2018-04-08T19:58:59.137Z,6.03
2018-04-08T20:01:26.836Z,6.53
2018-04-08T20:03:52.740Z,6.07
2018-04-08T20:06:21.525Z,6.60
2018-04-08T20:08:47.417Z,6.63
2018-04-08T20:11:16.338Z,6.50
2018-04-08T20:13:42.210Z,5.80
2018-04-08T20:16:11.814Z,6.93
2018-04-08T20:18:37.703Z,6.60
2018-04-08T20:21:06.716Z,5.60
2018-04-08T20:23:32.579Z,6.47
2018-04-08T20:25:58.468Z,8.37
2018-04-08T20:28:24.355Z,6.90
2018-04-08T20:30:50.215Z,6.67
2018-04-08T20:33:19.274Z,6.10
2018-04-08T20:35:45.160Z,6.30
2018-04-08T20:38:12.204Z,5.80
2018-04-08T20:40:38.131Z,7.70
2018-04-08T20:43:07.080Z,6.53
2018-04-08T20:45:32.945Z,6.83
2018-04-08T20:48:02.243Z,7.83
2018-04-08T20:50:28.099Z,6.37
2018-04-08T20:52:57.605Z,5.97
2018-04-08T20:55:23.522Z,7.40
2018-04-08T20:57:52.609Z,7.03
2018-04-08T21:00:19.364Z,7.93
2018-04-08T21:02:45.236Z,6.40
2018-04-08T21:05:11.114Z,5.30
2018-04-08T21:07:37.004Z,5.00
2018-04-08T21:10:02.903Z,6.53
2018-04-08T21:12:28.751Z,6.83
2018-04-08T21:14:57.416Z,5.80
2018-04-08T21:17:23.281Z,6.80
2018-04-08T21:19:52.050Z,6.73
2018-04-08T21:22:17.927Z,7.60
2018-04-08T21:24:46.632Z,7.00
2018-04-08T21:27:12.580Z,6.73
2018-04-08T21:29:41.529Z,7.70
2018-04-08T21:32:07.390Z,7.53
2018-04-08T21:34:36.826Z,6.37
2018-04-08T21:37:02.743Z,6.97
2018-04-08T21:39:28.583Z,6.93
2018-04-08T21:41:54.475Z,6.60
2018-04-08T21:44:20.407Z,7.50
2018-04-08T21:46:49.840Z,7.57
2018-04-08T21:49:15.707Z,7.27
2018-04-08T21:51:43.352Z,7.43
2018-04-08T21:54:09.252Z,6.93
2018-04-08T21:56:38.177Z,8.30
2018-04-08T21:59:04.048Z,8.80
2018-04-08T22:01:33.155Z,7.70
2018-04-08T22:03:58.994Z,8.40
2018-04-08T22:06:27.045Z,8.60
2018-04-08T22:08:52.883Z,9.00
2018-04-08T22:11:21.560Z,10.07
2018-04-08T22:13:47.430Z,8.17
2018-04-08T22:16:13.288Z,9.20
2018-04-08T22:18:39.180Z,8.97
2018-04-08T22:21:05.060Z,7.30
2018-04-08T22:23:34.871Z,7.00
2018-04-08T22:26:00.763Z,6.00
2018-04-08T22:28:28.166Z,7.40
2018-04-08T22:30:54.040Z,7.30
2018-04-08T22:33:22.708Z,6.30
2018-04-08T22:35:48.597Z,7.43
2018-04-08T22:38:17.436Z,6.40
2018-04-08T22:40:43.298Z,6.80
2018-04-08T22:43:12.211Z,6.40
2018-04-08T22:45:38.136Z,7.57
2018-04-08T22:48:07.195Z,6.93
2018-04-08T22:50:33.114Z,6.87
2018-04-08T22:52:59.029Z,7.47
2018-04-08T22:55:24.917Z,7.90
2018-04-08T22:57:50.785Z,8.47
2018-04-08T23:00:24.739Z,7.10
2018-04-08T23:02:50.574Z,7.53
2018-04-08T23:05:16.450Z,7.40
2018-04-08T23:07:42.310Z,7.67
2018-04-08T23:10:08.269Z,7.77
2018-04-08T23:12:34.116Z,8.50
2018-04-08T23:15:03.480Z,7.40
2018-04-08T23:17:29.471Z,9.05
2018-04-08T23:19:58.660Z,7.63
2018-04-08T23:22:24.527Z,8.38
2018-04-08T23:24:54.014Z,6.60
2018-04-08T23:27:19.900Z,7.03
2018-04-08T23:29:45.754Z,7.50
2018-04-08T23:32:11.617Z,7.23
2018-04-08T23:34:37.490Z,7.33
2018-04-08T23:37:04.359Z,8.17
2018-04-08T23:39:30.268Z,7.05
2018-04-08T23:41:58.829Z,7.77
2018-04-08T23:44:24.700Z,8.00
2018-04-08T23:46:53.919Z,7.93
2018-04-08T23:49:19.800Z,8.73
2018-04-08T23:51:48.896Z,7.33
2018-04-08T23:54:14.779Z,7.93
2018-04-08T23:56:43.859Z,7.47
2018-04-08T23:59:09.719Z,7.05
